sensor_id;sensor_type;location;lat;lon;timestamp;temperature;humidity
10980;DHT22;5543;51.734;8.744;2023-04-05T00:01:13;0.40;99.90
10980;DHT22;5543;51.734;8.744;2023-04-05T00:03:41;0.30;99.90
10980;DHT22;5543;51.734;8.744;2023-04-05T00:06:10;0.30;99.90
10980;DHT22;5543;51.734;8.744;2023-04-05T00:08:39;0.30;99.90
10980;DHT22;5543;51.734;8.744;2023-04-05T00:11:08;0.50;99.90
10980;DHT22;5543;51.734;8.744;2023-04-05T00:13:37;0.20;99.90
10980;DHT22;5543;51.734;8.744;2023-04-05T00:16:06;0.20;99.90
10980;DHT22;5543;51.734;8.744;2023-04-05T00:18:34;0.20;99.90
10980;DHT22;5543;51.734;8.744;2023-04-05T00:21:04;0.40;99.90
10980;DHT22;5543;51.734;8.744;2023-04-05T00:23:32;0.10;99.90
10980;DHT22;5543;51.734;8.744;2023-04-05T00:26:04;0.10;99.90
10980;DHT22;5543;51.734;8.744;2023-04-05T00:28:34;0.10;99.90
10980;DHT22;5543;51.734;8.744;2023-04-05T00:31:02;0.00;99.90
10980;DHT22;5543;51.734;8.744;2023-04-05T00:33:30;0.00;99.90
10980;DHT22;5543;51.734;8.744;2023-04-05T00:36:07;-0.10;99.90
10980;DHT22;5543;51.734;8.744;2023-04-05T00:38:36;0.00;99.90
10980;DHT22;5543;51.734;8.744;2023-04-05T00:41:04;0.30;99.90
10980;DHT22;5543;51.734;8.744;2023-04-05T00:43:34;0.30;99.90
10980;DHT22;5543;51.734;8.744;2023-04-05T00:46:03;0.10;99.90
10980;DHT22;5543;51.734;8.744;2023-04-05T00:48:32;-0.20;99.90
10980;DHT22;5543;51.734;8.744;2023-04-05T00:51:00;-0.20;99.90
10980;DHT22;5543;51.734;8.744;2023-04-05T00:53:30;-0.20;99.90
10980;DHT22;5543;51.734;8.744;2023-04-05T00:56:01;-0.30;99.90
10980;DHT22;5543;51.734;8.744;2023-04-05T00:58:29;-0.30;99.90
10980;DHT22;5543;51.734;8.744;2023-04-05T01:01:03;-0.30;99.90
10980;DHT22;5543;51.734;8.744;2023-04-05T01:03:42;-0.40;99.90
10980;DHT22;5543;51.734;8.744;2023-04-05T01:06:21;-0.40;99.90
10980;DHT22;5543;51.734;8.744;2023-04-05T01:08:59;-0.40;99.90
10980;DHT22;5543;51.734;8.744;2023-04-05T01:11:29;-0.40;99.90
10980;DHT22;5543;51.734;8.744;2023-04-05T01:13:58;-0.50;99.90
10980;DHT22;5543;51.734;8.744;2023-04-05T01:16:28;-0.50;99.90
10980;DHT22;5543;51.734;8.744;2023-04-05T01:18:56;-0.30;99.90
10980;DHT22;5543;51.734;8.744;2023-04-05T01:21:50;-0.50;99.90
10980;DHT22;5543;51.734;8.744;2023-04-05T01:24:34;-0.50;99.90
10980;DHT22;5543;51.734;8.744;2023-04-05T01:27:07;-0.50;99.90
10980;DHT22;5543;51.734;8.744;2023-04-05T01:29:58;-0.60;99.90
10980;DHT22;5543;51.734;8.744;2023-04-05T01:32:41;-0.60;99.90
10980;DHT22;5543;51.734;8.744;2023-04-05T01:35:18;-0.40;99.90
10980;DHT22;5543;51.734;8.744;2023-04-05T01:37:56;-0.60;99.90
10980;DHT22;5543;51.734;8.744;2023-04-05T01:40:25;-0.60;99.90
10980;DHT22;5543;51.734;8.744;2023-04-05T01:42:54;-0.60;99.90
10980;DHT22;5543;51.734;8.744;2023-04-05T01:45:23;-0.30;99.90
10980;DHT22;5543;51.734;8.744;2023-04-05T01:47:52;-0.60;99.90
10980;DHT22;5543;51.734;8.744;2023-04-05T01:50:20;-0.70;99.90
10980;DHT22;5543;51.734;8.744;2023-04-05T01:52:48;-0.60;99.90
10980;DHT22;5543;51.734;8.744;2023-04-05T01:55:16;-0.70;99.90
10980;DHT22;5543;51.734;8.744;2023-04-05T01:57:44;-0.60;99.90
10980;DHT22;5543;51.734;8.744;2023-04-05T02:00:13;-0.60;99.90
10980;DHT22;5543;51.734;8.744;2023-04-05T02:02:42;-0.70;99.90
10980;DHT22;5543;51.734;8.744;2023-04-05T02:05:10;-0.80;99.90
10980;DHT22;5543;51.734;8.744;2023-04-05T02:07:38;-0.60;99.90
10980;DHT22;5543;51.734;8.744;2023-04-05T02:10:07;-0.60;99.90
10980;DHT22;5543;51.734;8.744;2023-04-05T02:12:35;-0.60;99.90
10980;DHT22;5543;51.734;8.744;2023-04-05T02:15:04;-0.70;99.90
10980;DHT22;5543;51.734;8.744;2023-04-05T02:17:33;-0.70;99.90
10980;DHT22;5543;51.734;8.744;2023-04-05T02:20:08;-0.70;99.90
10980;DHT22;5543;51.734;8.744;2023-04-05T02:22:38;-0.80;99.90
10980;DHT22;5543;51.734;8.744;2023-04-05T02:25:07;-0.80;99.90
10980;DHT22;5543;51.734;8.744;2023-04-05T02:27:35;-0.80;99.90
10980;DHT22;5543;51.734;8.744;2023-04-05T02:30:04;-0.80;99.90
10980;DHT22;5543;51.734;8.744;2023-04-05T02:32:32;-0.80;99.90
10980;DHT22;5543;51.734;8.744;2023-04-05T02:35:00;-0.90;99.90
10980;DHT22;5543;51.734;8.744;2023-04-05T02:37:30;-1.00;99.90
10980;DHT22;5543;51.734;8.744;2023-04-05T02:39:58;-0.90;99.90
10980;DHT22;5543;51.734;8.744;2023-04-05T02:42:26;-0.90;99.90
10980;DHT22;5543;51.734;8.744;2023-04-05T02:44:54;-0.90;99.90
10980;DHT22;5543;51.734;8.744;2023-04-05T02:47:22;-0.90;99.90
10980;DHT22;5543;51.734;8.744;2023-04-05T02:49:50;-0.90;99.90
10980;DHT22;5543;51.734;8.744;2023-04-05T02:52:18;-1.00;99.90
10980;DHT22;5543;51.734;8.744;2023-04-05T02:54:48;-0.80;99.90
10980;DHT22;5543;51.734;8.744;2023-04-05T02:57:17;-0.80;99.90
10980;DHT22;5543;51.734;8.744;2023-04-05T02:59:45;-0.80;99.90
10980;DHT22;5543;51.734;8.744;2023-04-05T03:02:13;-0.90;99.90
10980;DHT22;5543;51.734;8.744;2023-04-05T03:04:41;-0.80;99.90
10980;DHT22;5543;51.734;8.744;2023-04-05T03:07:10;-0.90;99.90
10980;DHT22;5543;51.734;8.744;2023-04-05T03:09:40;-0.60;99.90
10980;DHT22;5543;51.734;8.744;2023-04-05T03:12:11;-0.90;99.90
10980;DHT22;5543;51.734;8.744;2023-04-05T03:14:39;-0.80;99.90
10980;DHT22;5543;51.734;8.744;2023-04-05T03:17:08;-0.90;99.90
10980;DHT22;5543;51.734;8.744;2023-04-05T03:19:36;-0.90;99.90
10980;DHT22;5543;51.734;8.744;2023-04-05T03:22:04;-0.80;99.90
10980;DHT22;5543;51.734;8.744;2023-04-05T03:24:33;-0.90;99.90
10980;DHT22;5543;51.734;8.744;2023-04-05T03:27:02;-0.90;99.90
10980;DHT22;5543;51.734;8.744;2023-04-05T03:29:33;-0.90;99.90
10980;DHT22;5543;51.734;8.744;2023-04-05T03:32:01;-0.80;99.90
10980;DHT22;5543;51.734;8.744;2023-04-05T03:34:29;-0.80;99.90
10980;DHT22;5543;51.734;8.744;2023-04-05T03:36:57;-0.80;99.90
10980;DHT22;5543;51.734;8.744;2023-04-05T03:39:25;-0.70;99.90
10980;DHT22;5543;51.734;8.744;2023-04-05T03:41:53;-0.70;99.90
10980;DHT22;5543;51.734;8.744;2023-04-05T03:44:22;-0.70;99.90
10980;DHT22;5543;51.734;8.744;2023-04-05T03:46:51;-0.70;99.90
10980;DHT22;5543;51.734;8.744;2023-04-05T03:49:19;-0.60;99.90
10980;DHT22;5543;51.734;8.744;2023-04-05T03:51:47;-0.60;99.90
10980;DHT22;5543;51.734;8.744;2023-04-05T03:54:15;-0.50;99.90
10980;DHT22;5543;51.734;8.744;2023-04-05T03:56:43;-0.60;99.90
10980;DHT22;5543;51.734;8.744;2023-04-05T03:59:11;-0.70;99.90
10980;DHT22;5543;51.734;8.744;2023-04-05T04:01:40;-0.60;99.90
10980;DHT22;5543;51.734;8.744;2023-04-05T04:04:09;-0.70;99.90
10980;DHT22;5543;51.734;8.744;2023-04-05T04:06:39;-0.70;99.90
10980;DHT22;5543;51.734;8.744;2023-04-05T04:09:07;-0.70;99.90
10980;DHT22;5543;51.734;8.744;2023-04-05T04:11:35;-0.50;99.90
10980;DHT22;5543;51.734;8.744;2023-04-05T04:14:03;-0.70;99.90
10980;DHT22;5543;51.734;8.744;2023-04-05T04:16:31;-0.80;99.90
10980;DHT22;5543;51.734;8.744;2023-04-05T04:18:59;-0.80;99.90
10980;DHT22;5543;51.734;8.744;2023-04-05T04:21:28;-0.60;99.90
10980;DHT22;5543;51.734;8.744;2023-04-05T04:23:58;-0.80;99.90
10980;DHT22;5543;51.734;8.744;2023-04-05T04:26:26;-0.80;99.90
10980;DHT22;5543;51.734;8.744;2023-04-05T04:28:55;-0.90;99.90
10980;DHT22;5543;51.734;8.744;2023-04-05T04:31:23;-0.90;99.90
10980;DHT22;5543;51.734;8.744;2023-04-05T04:33:51;-0.90;99.90
10980;DHT22;5543;51.734;8.744;2023-04-05T04:36:21;-0.90;99.90
10980;DHT22;5543;51.734;8.744;2023-04-05T04:39:02;-0.90;99.90
10980;DHT22;5543;51.734;8.744;2023-04-05T04:41:32;-0.90;99.90
10980;DHT22;5543;51.734;8.744;2023-04-05T04:44:01;-0.90;99.90
10980;DHT22;5543;51.734;8.744;2023-04-05T04:46:31;-0.90;99.90
10980;DHT22;5543;51.734;8.744;2023-04-05T04:49:00;-0.90;99.90
10980;DHT22;5543;51.734;8.744;2023-04-05T04:51:31;-0.90;99.90
10980;DHT22;5543;51.734;8.744;2023-04-05T04:54:00;-0.90;99.90
10980;DHT22;5543;51.734;8.744;2023-04-05T04:56:28;-0.90;99.90
10980;DHT22;5543;51.734;8.744;2023-04-05T04:58:57;-0.80;99.90
10980;DHT22;5543;51.734;8.744;2023-04-05T05:01:25;-0.80;99.90
10980;DHT22;5543;51.734;8.744;2023-04-05T05:03:53;-0.70;99.90
10980;DHT22;5543;51.734;8.744;2023-04-05T05:06:21;-0.80;99.90
10980;DHT22;5543;51.734;8.744;2023-04-05T05:08:49;-0.80;99.90
10980;DHT22;5543;51.734;8.744;2023-04-05T05:11:19;-0.50;99.90
10980;DHT22;5543;51.734;8.744;2023-04-05T05:13:47;-0.60;99.90
10980;DHT22;5543;51.734;8.744;2023-04-05T05:16:18;-0.70;99.90
10980;DHT22;5543;51.734;8.744;2023-04-05T05:18:49;-0.70;99.90
10980;DHT22;5543;51.734;8.744;2023-04-05T05:21:18;-0.70;99.90
10980;DHT22;5543;51.734;8.744;2023-04-05T05:23:46;-0.60;99.90
10980;DHT22;5543;51.734;8.744;2023-04-05T05:26:14;-0.60;99.90
10980;DHT22;5543;51.734;8.744;2023-04-05T05:28:44;-0.50;99.90
10980;DHT22;5543;51.734;8.744;2023-04-05T05:31:14;-0.50;99.90
10980;DHT22;5543;51.734;8.744;2023-04-05T05:33:43;-0.40;99.90
10980;DHT22;5543;51.734;8.744;2023-04-05T05:36:15;-0.40;99.90
10980;DHT22;5543;51.734;8.744;2023-04-05T05:38:45;-0.30;99.90
10980;DHT22;5543;51.734;8.744;2023-04-05T05:41:14;-0.30;99.90
10980;DHT22;5543;51.734;8.744;2023-04-05T05:43:44;-0.20;99.90
10980;DHT22;5543;51.734;8.744;2023-04-05T05:46:12;-0.20;99.90
10980;DHT22;5543;51.734;8.744;2023-04-05T05:48:40;-0.20;99.90
10980;DHT22;5543;51.734;8.744;2023-04-05T05:51:08;-0.20;99.90
10980;DHT22;5543;51.734;8.744;2023-04-05T05:53:37;0.00;99.90
10980;DHT22;5543;51.734;8.744;2023-04-05T05:56:05;0.00;99.90
10980;DHT22;5543;51.734;8.744;2023-04-05T05:58:33;0.10;99.90
10980;DHT22;5543;51.734;8.744;2023-04-05T06:01:05;0.20;99.90
10980;DHT22;5543;51.734;8.744;2023-04-05T06:03:33;0.20;99.90
10980;DHT22;5543;51.734;8.744;2023-04-05T06:06:01;0.30;99.90
10980;DHT22;5543;51.734;8.744;2023-04-05T06:08:31;0.40;99.90
10980;DHT22;5543;51.734;8.744;2023-04-05T06:10:59;0.50;99.90
10980;DHT22;5543;51.734;8.744;2023-04-05T06:13:27;0.60;99.90
10980;DHT22;5543;51.734;8.744;2023-04-05T06:15:55;0.70;99.90
10980;DHT22;5543;51.734;8.744;2023-04-05T06:18:25;0.80;99.90
10980;DHT22;5543;51.734;8.744;2023-04-05T06:20:54;0.90;99.90
10980;DHT22;5543;51.734;8.744;2023-04-05T06:23:22;1.00;99.90
10980;DHT22;5543;51.734;8.744;2023-04-05T06:25:50;1.10;99.90
10980;DHT22;5543;51.734;8.744;2023-04-05T06:28:18;1.30;99.90
10980;DHT22;5543;51.734;8.744;2023-04-05T06:30:46;1.40;99.90
10980;DHT22;5543;51.734;8.744;2023-04-05T06:33:14;1.60;99.90
10980;DHT22;5543;51.734;8.744;2023-04-05T06:35:43;1.80;99.90
10980;DHT22;5543;51.734;8.744;2023-04-05T06:38:13;1.90;99.90
10980;DHT22;5543;51.734;8.744;2023-04-05T06:40:41;2.30;99.90
10980;DHT22;5543;51.734;8.744;2023-04-05T06:43:09;2.40;99.40
10980;DHT22;5543;51.734;8.744;2023-04-05T06:45:37;2.70;99.20
10980;DHT22;5543;51.734;8.744;2023-04-05T06:48:06;2.70;98.60
10980;DHT22;5543;51.734;8.744;2023-04-05T06:50:34;3.00;98.30
10980;DHT22;5543;51.734;8.744;2023-04-05T06:53:04;3.00;98.00
10980;DHT22;5543;51.734;8.744;2023-04-05T06:55:32;3.10;97.60
10980;DHT22;5543;51.734;8.744;2023-04-05T06:58:00;3.20;97.40
10980;DHT22;5543;51.734;8.744;2023-04-05T07:00:28;3.40;96.80
10980;DHT22;5543;51.734;8.744;2023-04-05T07:02:56;3.50;97.10
10980;DHT22;5543;51.734;8.744;2023-04-05T07:05:24;3.70;96.60
10980;DHT22;5543;51.734;8.744;2023-04-05T07:07:52;3.90;96.10
10980;DHT22;5543;51.734;8.744;2023-04-05T07:10:22;4.00;95.80
10980;DHT22;5543;51.734;8.744;2023-04-05T07:12:50;4.10;95.80
10980;DHT22;5543;51.734;8.744;2023-04-05T07:15:18;4.30;95.00
10980;DHT22;5543;51.734;8.744;2023-04-05T07:17:46;4.40;94.50
10980;DHT22;5543;51.734;8.744;2023-04-05T07:20:14;4.60;94.90
10980;DHT22;5543;51.734;8.744;2023-04-05T07:22:42;4.70;94.60
10980;DHT22;5543;51.734;8.744;2023-04-05T07:25:10;4.80;94.20
10980;DHT22;5543;51.734;8.744;2023-04-05T07:27:40;4.90;93.90
10980;DHT22;5543;51.734;8.744;2023-04-05T07:30:08;5.20;93.70
10980;DHT22;5543;51.734;8.744;2023-04-05T07:32:36;5.30;93.90
10980;DHT22;5543;51.734;8.744;2023-04-05T07:35:05;5.50;93.60
10980;DHT22;5543;51.734;8.744;2023-04-05T07:37:34;5.70;93.10
10980;DHT22;5543;51.734;8.744;2023-04-05T07:40:03;5.70;92.00
10980;DHT22;5543;51.734;8.744;2023-04-05T07:42:32;5.90;91.60
10980;DHT22;5543;51.734;8.744;2023-04-05T07:45:01;6.00;91.30
10980;DHT22;5543;51.734;8.744;2023-04-05T07:47:32;6.30;92.80
10980;DHT22;5543;51.734;8.744;2023-04-05T07:50:00;6.40;90.90
10980;DHT22;5543;51.734;8.744;2023-04-05T07:52:28;6.50;90.30
10980;DHT22;5543;51.734;8.744;2023-04-05T07:54:57;6.60;88.60
10980;DHT22;5543;51.734;8.744;2023-04-05T07:57:25;6.90;90.10
10980;DHT22;5543;51.734;8.744;2023-04-05T07:59:53;6.90;90.00
10980;DHT22;5543;51.734;8.744;2023-04-05T08:02:23;7.00;87.40
10980;DHT22;5543;51.734;8.744;2023-04-05T08:04:52;7.10;87.50
10980;DHT22;5543;51.734;8.744;2023-04-05T08:07:20;7.40;88.50
10980;DHT22;5543;51.734;8.744;2023-04-05T08:09:48;7.80;87.00
10980;DHT22;5543;51.734;8.744;2023-04-05T08:12:16;8.40;86.90
10980;DHT22;5543;51.734;8.744;2023-04-05T08:14:44;8.90;80.80
10980;DHT22;5543;51.734;8.744;2023-04-05T08:17:12;10.10;80.70
10980;DHT22;5543;51.734;8.744;2023-04-05T08:19:42;10.70;76.00
10980;DHT22;5543;51.734;8.744;2023-04-05T08:22:10;11.80;74.50
10980;DHT22;5543;51.734;8.744;2023-04-05T08:24:38;12.10;70.80
10980;DHT22;5543;51.734;8.744;2023-04-05T08:27:06;12.60;68.90
10980;DHT22;5543;51.734;8.744;2023-04-05T08:29:34;13.10;69.10
10980;DHT22;5543;51.734;8.744;2023-04-05T08:32:03;13.60;67.20
10980;DHT22;5543;51.734;8.744;2023-04-05T08:34:32;13.90;65.70
10980;DHT22;5543;51.734;8.744;2023-04-05T08:37:01;14.60;63.90
10980;DHT22;5543;51.734;8.744;2023-04-05T08:39:29;14.30;63.10
10980;DHT22;5543;51.734;8.744;2023-04-05T08:42:02;13.90;60.60
10980;DHT22;5543;51.734;8.744;2023-04-05T08:44:32;14.60;60.90
10980;DHT22;5543;51.734;8.744;2023-04-05T08:47:03;14.70;60.90
10980;DHT22;5543;51.734;8.744;2023-04-05T08:49:31;14.70;58.40
10980;DHT22;5543;51.734;8.744;2023-04-05T08:52:02;15.00;57.00
10980;DHT22;5543;51.734;8.744;2023-04-05T08:54:31;14.90;58.50
10980;DHT22;5543;51.734;8.744;2023-04-05T08:57:01;15.30;57.10
10980;DHT22;5543;51.734;8.744;2023-04-05T08:59:32;15.50;56.90
10980;DHT22;5543;51.734;8.744;2023-04-05T09:02:05;15.30;54.60
10980;DHT22;5543;51.734;8.744;2023-04-05T09:04:37;15.60;54.90
10980;DHT22;5543;51.734;8.744;2023-04-05T09:07:12;15.80;54.20
10980;DHT22;5543;51.734;8.744;2023-04-05T09:09:45;16.10;54.80
10980;DHT22;5543;51.734;8.744;2023-04-05T09:12:13;16.70;53.70
10980;DHT22;5543;51.734;8.744;2023-04-05T09:14:41;16.50;51.00
10980;DHT22;5543;51.734;8.744;2023-04-05T09:17:10;16.50;52.70
10980;DHT22;5543;51.734;8.744;2023-04-05T09:19:39;16.00;51.10
10980;DHT22;5543;51.734;8.744;2023-04-05T09:22:07;16.90;54.50
10980;DHT22;5543;51.734;8.744;2023-04-05T09:24:39;17.50;52.70
10980;DHT22;5543;51.734;8.744;2023-04-05T09:27:09;18.10;51.30
10980;DHT22;5543;51.734;8.744;2023-04-05T09:29:38;17.70;49.10
10980;DHT22;5543;51.734;8.744;2023-04-05T09:32:08;18.00;48.50
10980;DHT22;5543;51.734;8.744;2023-04-05T09:34:37;17.70;47.30
10980;DHT22;5543;51.734;8.744;2023-04-05T09:37:12;17.30;48.00
10980;DHT22;5543;51.734;8.744;2023-04-05T09:39:42;17.90;49.40
10980;DHT22;5543;51.734;8.744;2023-04-05T09:42:12;18.30;48.50
10980;DHT22;5543;51.734;8.744;2023-04-05T09:44:51;18.00;46.70
10980;DHT22;5543;51.734;8.744;2023-04-05T09:47:21;18.00;47.20
10980;DHT22;5543;51.734;8.744;2023-04-05T09:49:50;18.30;46.40
10980;DHT22;5543;51.734;8.744;2023-04-05T09:52:20;17.80;47.40
10980;DHT22;5543;51.734;8.744;2023-04-05T09:54:51;18.70;48.40
10980;DHT22;5543;51.734;8.744;2023-04-05T09:57:19;19.10;45.80
10980;DHT22;5543;51.734;8.744;2023-04-05T09:59:47;19.00;46.60
10980;DHT22;5543;51.734;8.744;2023-04-05T10:02:15;19.00;45.40
10980;DHT22;5543;51.734;8.744;2023-04-05T10:04:44;18.50;42.80
10980;DHT22;5543;51.734;8.744;2023-04-05T10:07:15;20.20;44.70
10980;DHT22;5543;51.734;8.744;2023-04-05T10:09:44;21.60;44.20
10980;DHT22;5543;51.734;8.744;2023-04-05T10:12:24;21.60;42.40
10980;DHT22;5543;51.734;8.744;2023-04-05T10:14:54;21.60;42.90
10980;DHT22;5543;51.734;8.744;2023-04-05T10:17:23;21.90;41.00
10980;DHT22;5543;51.734;8.744;2023-04-05T10:20:08;20.30;42.20
10980;DHT22;5543;51.734;8.744;2023-04-05T10:22:43;20.20;41.10
10980;DHT22;5543;51.734;8.744;2023-04-05T10:25:23;20.00;43.60
10980;DHT22;5543;51.734;8.744;2023-04-05T10:27:58;19.10;40.90
10980;DHT22;5543;51.734;8.744;2023-04-05T10:30:34;16.70;41.80
10980;DHT22;5543;51.734;8.744;2023-04-05T10:33:18;16.60;43.90
10980;DHT22;5543;51.734;8.744;2023-04-05T10:36:01;17.20;45.00
10980;DHT22;5543;51.734;8.744;2023-04-05T10:38:38;18.20;41.20
10980;DHT22;5543;51.734;8.744;2023-04-05T10:41:12;20.00;43.90
10980;DHT22;5543;51.734;8.744;2023-04-05T10:43:43;19.70;40.70
10980;DHT22;5543;51.734;8.744;2023-04-05T10:46:18;19.50;40.80
10980;DHT22;5543;51.734;8.744;2023-04-05T10:48:53;19.10;39.60
10980;DHT22;5543;51.734;8.744;2023-04-05T10:51:25;20.10;42.50
10980;DHT22;5543;51.734;8.744;2023-04-05T10:53:53;19.90;39.30
10980;DHT22;5543;51.734;8.744;2023-04-05T10:56:24;21.50;39.70
10980;DHT22;5543;51.734;8.744;2023-04-05T10:58:54;22.60;38.00
10980;DHT22;5543;51.734;8.744;2023-04-05T11:01:23;19.20;37.40
10980;DHT22;5543;51.734;8.744;2023-04-05T11:03:52;20.00;39.20
10980;DHT22;5543;51.734;8.744;2023-04-05T11:06:23;20.60;40.50
10980;DHT22;5543;51.734;8.744;2023-04-05T11:08:55;21.50;36.90
10980;DHT22;5543;51.734;8.744;2023-04-05T11:11:24;21.20;38.80
10980;DHT22;5543;51.734;8.744;2023-04-05T11:13:55;21.40;39.40
10980;DHT22;5543;51.734;8.744;2023-04-05T11:16:38;21.80;39.20
10980;DHT22;5543;51.734;8.744;2023-04-05T11:19:06;19.60;37.90
10980;DHT22;5543;51.734;8.744;2023-04-05T11:21:34;18.90;38.80
10980;DHT22;5543;51.734;8.744;2023-04-05T11:24:05;19.10;40.80
10980;DHT22;5543;51.734;8.744;2023-04-05T11:26:54;18.10;40.30
10980;DHT22;5543;51.734;8.744;2023-04-05T11:29:46;16.70;41.90
10980;DHT22;5543;51.734;8.744;2023-04-05T11:32:16;15.60;44.40
10980;DHT22;5543;51.734;8.744;2023-04-05T11:34:57;14.70;44.70
10980;DHT22;5543;51.734;8.744;2023-04-05T11:37:54;13.50;44.10
10980;DHT22;5543;51.734;8.744;2023-04-05T11:40:29;13.40;44.60
10980;DHT22;5543;51.734;8.744;2023-04-05T11:43:00;13.00;46.50
10980;DHT22;5543;51.734;8.744;2023-04-05T11:45:30;13.40;45.00
10980;DHT22;5543;51.734;8.744;2023-04-05T11:47:59;12.90;46.30
10980;DHT22;5543;51.734;8.744;2023-04-05T11:50:28;12.80;49.10
10980;DHT22;5543;51.734;8.744;2023-04-05T11:53:09;12.40;46.50
10980;DHT22;5543;51.734;8.744;2023-04-05T11:55:39;12.60;49.50
10980;DHT22;5543;51.734;8.744;2023-04-05T11:58:14;12.60;48.20
10980;DHT22;5543;51.734;8.744;2023-04-05T12:00:45;12.40;51.40
10980;DHT22;5543;51.734;8.744;2023-04-05T12:03:14;12.40;48.70
10980;DHT22;5543;51.734;8.744;2023-04-05T12:05:46;12.00;47.70
10980;DHT22;5543;51.734;8.744;2023-04-05T12:08:15;11.90;46.80
10980;DHT22;5543;51.734;8.744;2023-04-05T12:10:43;12.40;48.80
10980;DHT22;5543;51.734;8.744;2023-04-05T12:13:12;11.90;47.90
10980;DHT22;5543;51.734;8.744;2023-04-05T12:15:40;11.90;50.90
10980;DHT22;5543;51.734;8.744;2023-04-05T12:18:13;12.30;49.60
10980;DHT22;5543;51.734;8.744;2023-04-05T12:20:42;12.30;48.80
10980;DHT22;5543;51.734;8.744;2023-04-05T12:23:11;12.60;45.90
10980;DHT22;5543;51.734;8.744;2023-04-05T12:25:39;12.60;45.40
10980;DHT22;5543;51.734;8.744;2023-04-05T12:28:08;12.70;47.50
10980;DHT22;5543;51.734;8.744;2023-04-05T12:30:47;12.80;47.40
10980;DHT22;5543;51.734;8.744;2023-04-05T12:33:26;12.40;45.20
10980;DHT22;5543;51.734;8.744;2023-04-05T12:35:55;12.30;48.00
10980;DHT22;5543;51.734;8.744;2023-04-05T12:38:24;11.80;45.80
10980;DHT22;5543;51.734;8.744;2023-04-05T12:40:58;11.80;46.40
10980;DHT22;5543;51.734;8.744;2023-04-05T12:43:37;11.80;46.50
10980;DHT22;5543;51.734;8.744;2023-04-05T12:46:08;11.80;47.50
10980;DHT22;5543;51.734;8.744;2023-04-05T12:48:37;12.10;49.50
10980;DHT22;5543;51.734;8.744;2023-04-05T12:51:13;12.50;48.80
10980;DHT22;5543;51.734;8.744;2023-04-05T12:53:46;12.80;45.70
10980;DHT22;5543;51.734;8.744;2023-04-05T12:56:14;13.00;46.90
10980;DHT22;5543;51.734;8.744;2023-04-05T12:58:43;13.20;45.80
10980;DHT22;5543;51.734;8.744;2023-04-05T13:01:15;13.10;48.10
10980;DHT22;5543;51.734;8.744;2023-04-05T13:03:45;13.10;46.10
10980;DHT22;5543;51.734;8.744;2023-04-05T13:06:15;13.10;46.50
10980;DHT22;5543;51.734;8.744;2023-04-05T13:08:44;13.00;46.00
10980;DHT22;5543;51.734;8.744;2023-04-05T13:11:12;13.00;46.80
10980;DHT22;5543;51.734;8.744;2023-04-05T13:13:40;12.30;46.70
10980;DHT22;5543;51.734;8.744;2023-04-05T13:16:08;12.20;47.50
10980;DHT22;5543;51.734;8.744;2023-04-05T13:18:36;12.50;49.30
10980;DHT22;5543;51.734;8.744;2023-04-05T13:21:06;12.70;48.70
10980;DHT22;5543;51.734;8.744;2023-04-05T13:23:36;12.80;46.20
10980;DHT22;5543;51.734;8.744;2023-04-05T13:26:05;12.80;45.80
10980;DHT22;5543;51.734;8.744;2023-04-05T13:28:34;12.60;46.30
10980;DHT22;5543;51.734;8.744;2023-04-05T13:31:02;12.20;47.00
10980;DHT22;5543;51.734;8.744;2023-04-05T13:33:32;12.30;48.30
10980;DHT22;5543;51.734;8.744;2023-04-05T13:36:00;12.10;47.00
10980;DHT22;5543;51.734;8.744;2023-04-05T13:38:30;12.20;48.50
10980;DHT22;5543;51.734;8.744;2023-04-05T13:40:58;12.30;48.10
10980;DHT22;5543;51.734;8.744;2023-04-05T13:43:26;12.50;48.70
10980;DHT22;5543;51.734;8.744;2023-04-05T13:45:57;12.60;47.80
10980;DHT22;5543;51.734;8.744;2023-04-05T13:48:25;12.50;45.40
10980;DHT22;5543;51.734;8.744;2023-04-05T13:50:53;12.90;44.60
10980;DHT22;5543;51.734;8.744;2023-04-05T13:53:21;13.50;45.20
10980;DHT22;5543;51.734;8.744;2023-04-05T13:55:50;14.10;44.60
10980;DHT22;5543;51.734;8.744;2023-04-05T13:58:18;14.10;42.30
10980;DHT22;5543;51.734;8.744;2023-04-05T14:00:46;14.10;45.00
10980;DHT22;5543;51.734;8.744;2023-04-05T14:03:15;14.90;45.00
10980;DHT22;5543;51.734;8.744;2023-04-05T14:05:43;15.50;45.60
10980;DHT22;5543;51.734;8.744;2023-04-05T14:08:14;15.90;43.80
10980;DHT22;5543;51.734;8.744;2023-04-05T14:10:44;16.10;42.60
10980;DHT22;5543;51.734;8.744;2023-04-05T14:13:13;17.10;43.70
10980;DHT22;5543;51.734;8.744;2023-04-05T14:15:43;17.00;41.40
10980;DHT22;5543;51.734;8.744;2023-04-05T14:18:12;17.00;41.80
10980;DHT22;5543;51.734;8.744;2023-04-05T14:20:40;16.70;39.90
10980;DHT22;5543;51.734;8.744;2023-04-05T14:23:08;17.60;40.90
10980;DHT22;5543;51.734;8.744;2023-04-05T14:25:37;18.10;41.60
10980;DHT22;5543;51.734;8.744;2023-04-05T14:28:05;18.90;41.50
10980;DHT22;5543;51.734;8.744;2023-04-05T14:30:35;19.50;41.00
10980;DHT22;5543;51.734;8.744;2023-04-05T14:33:04;19.10;40.40
10980;DHT22;5543;51.734;8.744;2023-04-05T14:35:32;18.90;40.40
10980;DHT22;5543;51.734;8.744;2023-04-05T14:38:01;18.20;41.00
10980;DHT22;5543;51.734;8.744;2023-04-05T14:40:29;17.10;40.70
10980;DHT22;5543;51.734;8.744;2023-04-05T14:42:57;16.50;41.00
10980;DHT22;5543;51.734;8.744;2023-04-05T14:45:26;15.80;42.10
10980;DHT22;5543;51.734;8.744;2023-04-05T14:47:55;15.50;44.10
10980;DHT22;5543;51.734;8.744;2023-04-05T14:50:24;15.10;43.20
10980;DHT22;5543;51.734;8.744;2023-04-05T14:52:52;14.80;41.40
10980;DHT22;5543;51.734;8.744;2023-04-05T14:55:21;15.00;44.40
10980;DHT22;5543;51.734;8.744;2023-04-05T14:57:49;15.30;45.40
10980;DHT22;5543;51.734;8.744;2023-04-05T15:00:18;15.60;44.00
10980;DHT22;5543;51.734;8.744;2023-04-05T15:02:47;15.90;42.10
10980;DHT22;5543;51.734;8.744;2023-04-05T15:05:18;15.70;45.40
10980;DHT22;5543;51.734;8.744;2023-04-05T15:07:46;15.90;43.00
10980;DHT22;5543;51.734;8.744;2023-04-05T15:10:14;16.00;43.70
10980;DHT22;5543;51.734;8.744;2023-04-05T15:12:44;15.80;42.60
10980;DHT22;5543;51.734;8.744;2023-04-05T15:15:12;15.70;42.90
10980;DHT22;5543;51.734;8.744;2023-04-05T15:17:40;15.10;43.30
10980;DHT22;5543;51.734;8.744;2023-04-05T15:20:09;14.30;43.20
10980;DHT22;5543;51.734;8.744;2023-04-05T15:22:39;13.70;42.90
10980;DHT22;5543;51.734;8.744;2023-04-05T15:25:08;13.50;44.10
10980;DHT22;5543;51.734;8.744;2023-04-05T15:27:36;13.50;44.90
10980;DHT22;5543;51.734;8.744;2023-04-05T15:30:06;13.10;43.50
10980;DHT22;5543;51.734;8.744;2023-04-05T15:32:35;12.70;42.80
10980;DHT22;5543;51.734;8.744;2023-04-05T15:35:04;12.20;43.50
10980;DHT22;5543;51.734;8.744;2023-04-05T15:37:33;12.10;44.80
10980;DHT22;5543;51.734;8.744;2023-04-05T15:40:03;12.00;45.00
10980;DHT22;5543;51.734;8.744;2023-04-05T15:42:33;12.20;45.40
10980;DHT22;5543;51.734;8.744;2023-04-05T15:45:01;12.10;46.40
10980;DHT22;5543;51.734;8.744;2023-04-05T15:47:29;11.90;46.50
10980;DHT22;5543;51.734;8.744;2023-04-05T15:49:57;12.00;45.20
10980;DHT22;5543;51.734;8.744;2023-04-05T15:52:26;12.20;44.90
10980;DHT22;5543;51.734;8.744;2023-04-05T15:54:54;12.50;45.20
10980;DHT22;5543;51.734;8.744;2023-04-05T15:57:24;12.70;46.20
10980;DHT22;5543;51.734;8.744;2023-04-05T15:59:52;12.90;47.20
10980;DHT22;5543;51.734;8.744;2023-04-05T16:02:20;13.10;46.00
10980;DHT22;5543;51.734;8.744;2023-04-05T16:04:48;13.20;45.70
10980;DHT22;5543;51.734;8.744;2023-04-05T16:07:17;13.30;44.00